| time (UTC) | temp F | wind direction | speed MPH | gust MPH | rain 1hr in | rain 24hr in | rain mn in | humidity % | barometer mb |
| 20260507063022 | 58 | 312 | 3.0 | 4.0 | 0.00 | 0.00 | 0.00 | 36 | 1016.2 |
| 20260507061523 | 58 | 134 | 0.0 | 0.0 | 0.00 | 0.00 | 0.00 | 36 | 1016.0 |
| 20260507060023 | 60 | 134 | 0.0 | 0.0 | 0.00 | 0.00 | 0.00 | 34 | 1015.7 |
| 20260507054522 | 62 | 188 | 1.0 | 5.0 | 0.00 | 0.00 | 0.00 | 33 | 1015.6 |
| 20260507053020 | 63 | 200 | 1.0 | 4.0 | 0.00 | 0.00 | 0.00 | 32 | 1015.5 |
| 20260507051521 | 63 | 217 | 2.0 | 6.0 | 0.00 | 0.00 | 0.00 | 32 | 1015.5 |
| 20260507050037 | 63 | 218 | 3.0 | 5.0 | 0.00 | 0.00 | 0.00 | 32 | 1015.4 |
| 20260507044519 | 64 | 209 | 3.0 | 7.0 | 0.00 | 0.00 | 0.00 | 32 | 1015.3 |
| 20260507043019 | 65 | 170 | 2.0 | 6.0 | 0.00 | 0.00 | 0.00 | 31 | 1015.2 |
| 20260507041518 | 65 | 178 | 4.0 | 9.0 | 0.00 | 0.00 | 0.00 | 30 | 1015.1 |
| 20260507040017 | 66 | 158 | 4.0 | 10.0 | 0.00 | 0.00 | 0.00 | 30 | 1014.9 |
| 20260507034520 | 66 | 170 | 5.0 | 10.0 | 0.00 | 0.00 | 0.00 | 30 | 1014.7 |
| 20260507033018 | 66 | 184 | 5.0 | 9.0 | 0.00 | 0.00 | 0.00 | 29 | 1014.4 |
| 20260507031516 | 67 | 174 | 4.0 | 8.0 | 0.00 | 0.00 | 0.00 | 29 | 1014.2 |
| 20260507030017 | 67 | 198 | 4.0 | 10.0 | 0.00 | 0.00 | 0.00 | 28 | 1014.1 |
| 20260507024516 | 68 | 204 | 4.0 | 10.0 | 0.00 | 0.00 | 0.00 | 28 | 1013.8 |
| 20260507023014 | 68 | 172 | 6.0 | 10.0 | 0.00 | 0.00 | 0.00 | 27 | 1013.6 |
| 20260507021514 | 69 | 203 | 7.0 | 13.0 | 0.00 | 0.00 | 0.00 | 27 | 1013.4 |
| 20260507020013 | 70 | 193 | 8.0 | 15.0 | 0.00 | 0.00 | 0.00 | 26 | 1013.4 |
| 20260507014512 | 71 | 162 | 7.0 | 14.0 | 0.00 | 0.00 | 0.00 | 25 | 1013.2 |
| 20260507013011 | 72 | 192 | 8.0 | 16.0 | 0.00 | 0.00 | 0.00 | 25 | 1013.1 |
| 20260507011514 | 73 | 179 | 8.0 | 14.0 | 0.00 | 0.00 | 0.00 | 24 | 1013.1 |
| 20260507010016 | 73 | 170 | 9.0 | 14.0 | 0.00 | 0.00 | 0.00 | 24 | 1013.1 |
| 20260507004510 | 75 | 240 | 8.0 | 12.0 | 0.00 | 0.00 | 0.00 | 23 | 1013.2 |
| 20260507003008 | 75 | 190 | 8.0 | 15.0 | 0.00 | 0.00 | 0.00 | 23 | 1013.0 |
| 20260507001508 | 75 | 199 | 9.0 | 18.0 | 0.00 | 0.00 | 0.00 | 23 | 1013.1 |
| 20260507000008 | 76 | 186 | 7.0 | 16.0 | 0.00 | 0.00 | 0.00 | 23 | 1013.0 |
| 20260506234505 | 76 | 175 | 10.0 | 16.0 | 0.00 | 0.00 | 0.00 | 22 | 1012.9 |
| 20260506233004 | 76 | 194 | 9.0 | 16.0 | 0.00 | 0.00 | 0.00 | 22 | 1013.0 |
| 20260506231506 | 76 | 190 | 7.0 | 19.0 | 0.00 | 0.00 | 0.00 | 22 | 1013.2 |
| 20260506230003 | 77 | 211 | 7.0 | 17.0 | 0.00 | 0.00 | 0.00 | 21 | 1013.3 |
| 20260506224500 | 76 | 209 | 8.0 | 13.0 | 0.00 | 0.00 | 0.00 | 22 | 1013.4 |
| 20260506223105 | 76 | 194 | 8.0 | 14.0 | 0.00 | 0.00 | 0.00 | 21 | 1013.5 |
| 20260506221605 | 76 | 245 | 5.0 | 10.0 | 0.00 | 0.00 | 0.00 | 22 | 1013.7 |
| 20260506220057 | 77 | 213 | 5.0 | 17.0 | 0.00 | 0.00 | 0.00 | 22 | 1014.0 |
| 20260506214559 | 76 | 144 | 7.0 | 17.0 | 0.00 | 0.00 | 0.00 | 22 | 1014.0 |
| 20260506213057 | 75 | 238 | 5.0 | 12.0 | 0.00 | 0.00 | 0.00 | 22 | 1014.2 |
| 20260506211554 | 75 | 213 | 5.0 | 12.0 | 0.00 | 0.00 | 0.00 | 22 | 1014.3 |
| 20260506210049 | 74 | 203 | 5.0 | 14.0 | 0.00 | 0.00 | 0.00 | 23 | 1014.5 |
| 20260506204548 | 74 | 187 | 3.0 | 15.0 | 0.00 | 0.00 | 0.00 | 23 | 1014.8 |
| 20260506203046 | 74 | 226 | 5.0 | 10.0 | 0.00 | 0.00 | 0.00 | 23 | 1015.0 |
| 20260506201544 | 73 | 143 | 9.0 | 15.0 | 0.00 | 0.00 | 0.00 | 23 | 1015.1 |
| 20260506200044 | 72 | 191 | 7.0 | 13.0 | 0.00 | 0.00 | 0.00 | 24 | 1015.4 |
| 20260506194543 | 72 | 191 | 6.0 | 15.0 | 0.00 | 0.00 | 0.00 | 25 | 1015.5 |
| 20260506193046 | 71 | 251 | 3.0 | 11.0 | 0.00 | 0.00 | 0.00 | 25 | 1015.5 |
| 20260506191535 | 71 | 107 | 7.0 | 12.0 | 0.00 | 0.00 | 0.00 | 25 | 1015.8 |
| 20260506190033 | 71 | 154 | 5.0 | 11.0 | 0.00 | 0.00 | 0.00 | 24 | 1015.9 |
| 20260506184537 | 71 | 190 | 5.0 | 11.0 | 0.00 | 0.00 | 0.00 | 25 | 1016.1 |
| 20260506183032 | 70 | 257 | 6.0 | 23.0 | 0.00 | 0.00 | 0.00 | 26 | 1016.5 |
| 20260506181540 | 70 | 266 | 7.0 | 15.0 | 0.00 | 0.00 | 0.00 | 26 | 1016.4 |
| 20260506180027 | 69 | 221 | 6.0 | 10.0 | 0.00 | 0.00 | 0.00 | 26 | 1016.4 |
| 20260506174528 | 68 | 52 | 4.0 | 10.0 | 0.00 | 0.00 | 0.00 | 27 | 1016.5 |
| 20260506173042 | 67 | 143 | 3.0 | 9.0 | 0.00 | 0.00 | 0.00 | 27 | 1016.6 |
| 20260506171523 | 67 | 61 | 2.0 | 8.0 | 0.00 | 0.00 | 0.00 | 27 | 1016.6 |
| 20260506170019 | 66 | 318 | 3.0 | 9.0 | 0.00 | 0.00 | 0.00 | 28 | 1016.6 |
| 20260506164517 | 66 | 180 | 3.0 | 7.0 | 0.00 | 0.00 | 0.00 | 29 | 1016.6 |
| 20260506163017 | 64 | 111 | 2.0 | 6.0 | 0.00 | 0.00 | 0.00 | 30 | 1016.6 |
| 20260506161511 | 63 | 22 | 3.0 | 9.0 | 0.00 | 0.00 | 0.00 | 30 | 1016.6 |
| 20260506160010 | 63 | 213 | 0.0 | 6.0 | 0.00 | 0.00 | 0.00 | 33 | 1016.6 |
| 20260506154508 | 61 | 28 | 1.0 | 6.0 | 0.00 | 0.00 | 0.00 | 35 | 1016.5 |
| 20260506153003 | 61 | 17 | 2.0 | 7.0 | 0.00 | 0.00 | 0.00 | 36 | 1016.6 |
| 20260506151600 | 59 | 356 | 1.0 | 6.0 | 0.00 | 0.00 | 0.00 | 39 | 1016.7 |
| 20260506150055 | 57 | 33 | 1.0 | 6.0 | 0.00 | 0.00 | 0.00 | 41 | 1016.6 |
| 20260506144556 | 55 | 17 | 3.0 | 5.0 | 0.00 | 0.00 | 0.00 | 42 | 1016.5 |
| 20260506143048 | 53 | 355 | 2.0 | 5.0 | 0.00 | 0.00 | 0.00 | 44 | 1016.6 |
| 20260506141547 | 51 | 7 | 3.0 | 8.0 | 0.00 | 0.00 | 0.00 | 46 | 1016.6 |
| 20260506140046 | 49 | 332 | 3.0 | 5.0 | 0.00 | 0.00 | 0.00 | 48 | 1016.5 |
| 20260506134545 | 47 | 327 | 1.0 | 4.0 | 0.00 | 0.00 | 0.00 | 50 | 1016.6 |
| 20260506133056 | 44 | 315 | 1.0 | 5.0 | 0.00 | 0.00 | 0.00 | 53 | 1016.4 |
| 20260506131543 | 43 | 313 | 0.0 | 0.0 | 0.00 | 0.00 | 0.00 | 55 | 1016.2 |
| 20260506130041 | 42 | 6 | 0.0 | 0.0 | 0.00 | 0.00 | 0.00 | 57 | 1015.7 |
| 20260506124538 | 41 | 6 | 0.0 | 2.0 | 0.00 | 0.00 | 0.00 | 58 | 1015.4 |
| 20260506123037 | 41 | 37 | 0.0 | 0.0 | 0.00 | 0.00 | 0.00 | 58 | 1015.3 |
| 20260506121535 | 40 | 336 | 1.0 | 3.0 | 0.00 | 0.00 | 0.00 | 59 | 1015.3 |
| 20260506120033 | 39 | 334 | 0.0 | 0.0 | 0.00 | 0.00 | 0.00 | 61 | 1015.0 |
| 20260506114536 | 39 | 334 | 0.0 | 0.0 | 0.00 | 0.00 | 0.00 | 57 | 1014.8 |
| 20260506113028 | 41 | 334 | 0.0 | 0.0 | 0.00 | 0.00 | 0.00 | 58 | 1014.8 |
| 20260506111527 | 41 | 334 | 0.0 | 0.0 | 0.00 | 0.00 | 0.00 | 57 | 1014.7 |
| 20260506110026 | 42 | 334 | 0.0 | 0.0 | 0.00 | 0.00 | 0.00 | 55 | 1014.7 |
| 20260506104550 | 41 | 338 | 0.0 | 3.0 | 0.00 | 0.00 | 0.00 | 59 | 1014.8 |
| 20260506103023 | 41 | 302 | 0.0 | 0.0 | 0.00 | 0.00 | 0.00 | 57 | 1014.7 |
| 20260506101518 | 41 | 302 | 0.0 | 0.0 | 0.00 | 0.00 | 0.00 | 56 | 1014.5 |
| 20260506100017 | 42 | 302 | 0.0 | 0.0 | 0.00 | 0.00 | 0.00 | 56 | 1014.2 |
| 20260506094515 | 42 | 302 | 0.0 | 0.0 | 0.00 | 0.00 | 0.00 | 56 | 1014.3 |
| 20260506093014 | 43 | 302 | 0.0 | 3.0 | 0.00 | 0.00 | 0.00 | 56 | 1014.2 |
| 20260506091510 | 44 | 296 | 0.0 | 0.0 | 0.00 | 0.00 | 0.00 | 54 | 1014.0 |
| 20260506090007 | 44 | 296 | 0.0 | 0.0 | 0.00 | 0.00 | 0.00 | 55 | 1013.6 |
| 20260506084506 | 45 | 296 | 0.0 | 4.0 | 0.00 | 0.00 | 0.00 | 53 | 1013.7 |
| 20260506083003 | 45 | 305 | 0.0 | 0.0 | 0.00 | 0.00 | 0.00 | 52 | 1013.7 |
| 20260506081602 | 46 | 305 | 0.0 | 3.0 | 0.00 | 0.00 | 0.00 | 52 | 1013.4 |
| 20260506080104 | 47 | 305 | 2.0 | 3.0 | 0.00 | 0.00 | 0.00 | 51 | 1013.3 |
| 20260506073050 | 50 | 299 | 0.0 | 3.0 | 0.00 | 0.00 | 0.00 | 49 | 1013.2 |
| 20260506071545 | 52 | 103 | 0.0 | 1.0 | 0.00 | 0.00 | 0.00 | 47 | 1013.2 |